createdAt,value
2023-10-04T00:00:21.346Z,9.00
2023-10-04T00:02:24.537Z,9.00
2023-10-04T00:04:27.582Z,9.00
2023-10-04T00:06:30.253Z,8.90
2023-10-04T00:08:32.975Z,8.90
2023-10-04T00:10:37.008Z,8.90
2023-10-04T00:12:40.054Z,8.90
2023-10-04T00:14:42.774Z,8.80
2023-10-04T00:16:45.914Z,8.80
2023-10-04T00:18:50.402Z,8.80
2023-10-04T00:20:53.627Z,8.80
2023-10-04T00:22:55.398Z,8.70
2023-10-04T00:24:58.145Z,8.70
2023-10-04T00:27:01.266Z,8.70
2023-10-04T00:29:05.532Z,8.70
2023-10-04T00:31:08.776Z,8.70
2023-10-04T00:33:11.020Z,8.70
2023-10-04T00:35:13.884Z,8.70
2023-10-04T00:37:17.373Z,8.70
2023-10-04T00:39:20.622Z,8.70
2023-10-04T00:41:23.840Z,8.70
2023-10-04T00:43:27.277Z,8.80
2023-10-04T00:45:33.099Z,8.80
2023-10-04T00:47:37.016Z,8.80
2023-10-04T00:49:46.530Z,8.70
2023-10-04T00:51:49.386Z,8.70
2023-10-04T00:53:54.751Z,8.70
2023-10-04T00:55:58.197Z,8.60
2023-10-04T00:58:04.270Z,8.60
2023-10-04T01:00:11.455Z,8.60
2023-10-04T01:02:14.284Z,8.60
2023-10-04T01:04:17.216Z,8.50
2023-10-04T01:06:21.289Z,8.50
2023-10-04T01:08:24.291Z,8.50
2023-10-04T01:10:31.974Z,8.50
2023-10-04T01:12:35.050Z,8.40
2023-10-04T01:14:39.547Z,8.40
2023-10-04T01:16:44.812Z,8.30
2023-10-04T01:18:47.592Z,8.30
2023-10-04T01:20:52.696Z,8.30
2023-10-04T01:23:01.846Z,8.30
2023-10-04T01:25:05.936Z,8.40
2023-10-04T01:27:08.767Z,8.50
2023-10-04T01:29:13.239Z,8.50
2023-10-04T01:31:16.178Z,8.50
2023-10-04T01:33:20.437Z,8.60
2023-10-04T01:35:25.602Z,8.60
2023-10-04T01:37:31.959Z,8.70
2023-10-04T01:39:37.805Z,8.70
2023-10-04T01:41:40.935Z,8.80
2023-10-04T01:43:43.821Z,8.80
2023-10-04T01:45:51.435Z,8.80
2023-10-04T01:47:54.490Z,8.70
2023-10-04T01:49:57.425Z,8.70
2023-10-04T01:52:00.146Z,8.60
2023-10-04T01:54:04.604Z,8.60
2023-10-04T01:56:09.497Z,8.60
2023-10-04T01:58:14.269Z,8.50
2023-10-04T02:00:18.706Z,8.50
2023-10-04T02:02:20.554Z,8.40
2023-10-04T02:04:24.476Z,8.40
2023-10-04T02:06:27.779Z,8.40
2023-10-04T02:08:32.389Z,8.40
2023-10-04T02:10:35.163Z,8.50
2023-10-04T02:12:39.492Z,8.60
2023-10-04T02:14:42.673Z,8.70
2023-10-04T02:16:45.428Z,8.70
2023-10-04T02:18:49.591Z,8.70
2023-10-04T02:20:54.119Z,8.70
2023-10-04T02:23:00.888Z,8.60
2023-10-04T02:25:02.812Z,8.60
2023-10-04T02:27:07.968Z,8.50
2023-10-04T02:29:13.101Z,8.50
2023-10-04T02:31:15.991Z,8.50
2023-10-04T02:33:19.258Z,8.50
2023-10-04T02:35:27.758Z,8.50
2023-10-04T02:37:32.067Z,8.50
2023-10-04T02:39:38.026Z,8.60
2023-10-04T02:41:42.537Z,8.70
2023-10-04T02:43:45.245Z,8.70
2023-10-04T02:45:48.745Z,8.90
2023-10-04T02:47:51.982Z,9.10
2023-10-04T02:49:54.094Z,9.20
2023-10-04T02:51:56.839Z,9.40
2023-10-04T02:54:00.330Z,9.40
2023-10-04T02:56:07.311Z,9.60
2023-10-04T02:58:11.139Z,9.70
2023-10-04T03:00:18.402Z,9.80
2023-10-04T03:02:22.735Z,9.90
2023-10-04T03:04:25.532Z,10.10
2023-10-04T03:06:27.659Z,10.10
2023-10-04T03:08:33.278Z,10.20
2023-10-04T03:10:38.070Z,10.20
2023-10-04T03:12:42.162Z,10.20
2023-10-04T03:14:45.212Z,10.20
2023-10-04T03:16:49.651Z,10.20
2023-10-04T03:18:55.727Z,10.20
2023-10-04T03:21:21.281Z,10.20
2023-10-04T03:23:24.930Z,10.20
2023-10-04T03:25:28.270Z,10.20
2023-10-04T03:27:31.035Z,10.20
2023-10-04T03:29:33.942Z,10.20
2023-10-04T03:31:37.120Z,10.10
2023-10-04T03:33:39.497Z,10.00
2023-10-04T03:35:45.398Z,9.90
2023-10-04T03:37:55.448Z,9.80
2023-10-04T03:39:58.824Z,9.70
2023-10-04T03:42:01.921Z,9.60
2023-10-04T03:44:06.912Z,9.50
2023-10-04T03:46:18.461Z,9.30
2023-10-04T03:48:22.716Z,9.20
2023-10-04T03:50:26.652Z,9.10
2023-10-04T03:52:32.264Z,9.00
2023-10-04T03:54:37.351Z,9.00
2023-10-04T03:56:42.118Z,8.90
2023-10-04T03:58:45.286Z,8.90
2023-10-04T04:00:48.507Z,8.80
2023-10-04T04:02:52.604Z,8.70
2023-10-04T04:04:55.674Z,8.70
2023-10-04T04:06:58.437Z,8.70
2023-10-04T04:09:07.630Z,8.70
2023-10-04T04:11:10.453Z,8.60
2023-10-04T04:13:13.975Z,8.60
2023-10-04T04:15:18.383Z,8.60
2023-10-04T04:17:23.686Z,8.60
2023-10-04T04:19:27.710Z,8.60
2023-10-04T04:21:34.579Z,8.60
2023-10-04T04:23:37.525Z,8.60
2023-10-04T04:25:41.725Z,8.60
2023-10-04T04:27:47.972Z,8.60
2023-10-04T04:29:53.981Z,8.60
2023-10-04T04:31:58.003Z,8.60
2023-10-04T04:34:01.053Z,8.50
2023-10-04T04:36:10.562Z,8.60
2023-10-04T04:38:17.644Z,8.60
2023-10-04T04:40:24.901Z,8.60
2023-10-04T04:42:36.552Z,8.60
2023-10-04T04:44:43.607Z,8.60
2023-10-04T04:46:48.362Z,8.60
2023-10-04T04:48:55.069Z,8.70
2023-10-04T04:50:59.222Z,8.70
2023-10-04T04:53:09.942Z,8.70
2023-10-04T04:55:12.282Z,8.80
2023-10-04T04:57:15.043Z,8.80
2023-10-04T04:59:22.310Z,8.80
2023-10-04T05:01:25.364Z,8.80
2023-10-04T05:03:28.625Z,8.90
2023-10-04T05:05:32.648Z,8.90
2023-10-04T05:07:35.572Z,8.90
2023-10-04T05:09:38.443Z,8.90
2023-10-04T05:11:41.513Z,8.90
2023-10-04T05:13:44.778Z,8.90
2023-10-04T05:15:50.419Z,8.80
2023-10-04T05:17:52.462Z,8.80
2023-10-04T05:19:55.487Z,8.80
2023-10-04T05:21:58.196Z,8.80
2023-10-04T05:24:01.037Z,8.80
2023-10-04T05:26:04.768Z,8.80
2023-10-04T05:28:10.239Z,8.80
2023-10-04T05:30:16.699Z,8.80
2023-10-04T05:32:21.072Z,8.80
2023-10-04T05:34:24.262Z,8.80
2023-10-04T05:36:27.061Z,8.70
2023-10-04T05:38:29.985Z,8.70
2023-10-04T05:40:33.394Z,8.70
2023-10-04T05:42:36.230Z,8.70
2023-10-04T05:44:39.123Z,8.70
2023-10-04T05:46:45.610Z,8.70
2023-10-04T05:48:50.216Z,8.70
2023-10-04T05:50:55.293Z,8.70
2023-10-04T05:52:59.679Z,8.70
2023-10-04T05:55:02.744Z,8.80
2023-10-04T05:57:05.490Z,8.80
2023-10-04T05:59:11.690Z,8.90
2023-10-04T06:01:17.465Z,8.90
2023-10-04T06:03:20.876Z,9.00
2023-10-04T06:05:24.877Z,9.00
2023-10-04T06:07:27.701Z,9.00
2023-10-04T06:09:33.658Z,9.00
2023-10-04T06:11:36.895Z,9.00
2023-10-04T06:13:39.701Z,9.00
2023-10-04T06:15:42.363Z,9.00
2023-10-04T06:17:46.943Z,9.00
2023-10-04T06:19:48.914Z,8.90
2023-10-04T06:21:53.193Z,8.90
2023-10-04T06:23:55.929Z,8.90
2023-10-04T06:25:58.719Z,8.90
2023-10-04T06:28:04.471Z,8.90
2023-10-04T06:30:08.736Z,8.90
2023-10-04T06:32:11.690Z,8.90
2023-10-04T06:34:14.488Z,9.00
2023-10-04T06:36:17.279Z,9.00
2023-10-04T06:38:22.210Z,9.10
2023-10-04T06:40:25.629Z,9.20
2023-10-04T06:42:28.459Z,9.30
2023-10-04T06:44:32.114Z,9.30
2023-10-04T06:46:36.258Z,9.40
2023-10-04T06:48:40.574Z,9.50
2023-10-04T06:50:46.840Z,9.60
2023-10-04T06:52:50.662Z,9.60
2023-10-04T06:54:53.786Z,9.70
2023-10-04T06:56:56.530Z,9.70
2023-10-04T06:58:59.465Z,9.80
2023-10-04T07:01:03.687Z,9.80
2023-10-04T07:03:09.753Z,9.80
2023-10-04T07:05:15.836Z,9.90
2023-10-04T07:07:19.150Z,9.90
2023-10-04T07:09:22.169Z,10.00
2023-10-04T07:11:28.167Z,10.00
2023-10-04T07:13:34.580Z,10.10
2023-10-04T07:15:40.813Z,10.20
2023-10-04T07:17:44.383Z,10.20
2023-10-04T07:19:47.207Z,10.30
2023-10-04T07:21:50.400Z,10.40
2023-10-04T07:23:53.265Z,10.40
2023-10-04T07:25:56.036Z,10.50
2023-10-04T07:28:03.238Z,10.50
2023-10-04T07:30:08.540Z,10.60
2023-10-04T07:32:11.902Z,10.70
2023-10-04T07:34:14.671Z,10.70
2023-10-04T07:36:17.602Z,10.80
2023-10-04T07:38:20.383Z,10.90
2023-10-04T07:40:24.039Z,10.90
2023-10-04T07:42:27.269Z,11.00
2023-10-04T07:44:32.037Z,11.10
2023-10-04T07:46:35.118Z,11.20
2023-10-04T07:48:38.019Z,11.30
2023-10-04T07:50:41.034Z,11.30
2023-10-04T07:52:45.832Z,11.40
2023-10-04T07:54:48.700Z,11.60
2023-10-04T07:56:51.462Z,11.70
2023-10-04T07:58:54.209Z,11.80
2023-10-04T08:00:59.718Z,12.00
2023-10-04T08:03:02.646Z,12.10
2023-10-04T08:05:07.537Z,12.30
2023-10-04T08:07:13.398Z,12.40
2023-10-04T08:09:16.882Z,12.50
2023-10-04T08:11:20.118Z,12.60
2023-10-04T08:13:22.875Z,12.70
2023-10-04T08:15:26.970Z,12.80
2023-10-04T08:17:32.018Z,12.90
2023-10-04T08:19:35.065Z,13.00
2023-10-04T08:21:41.039Z,13.10
2023-10-04T08:23:45.884Z,13.20
2023-10-04T08:25:50.604Z,13.40
2023-10-04T08:27:53.483Z,13.60
2023-10-04T08:29:56.466Z,13.80
2023-10-04T08:31:59.230Z,14.00
2023-10-04T08:34:04.200Z,14.20
2023-10-04T08:36:11.284Z,14.40
2023-10-04T08:38:14.116Z,14.60
2023-10-04T08:40:18.589Z,14.70
2023-10-04T08:42:22.173Z,14.80
2023-10-04T08:44:25.005Z,14.80
2023-10-04T08:46:28.631Z,14.80
2023-10-04T08:48:31.764Z,14.90
2023-10-04T08:50:46.416Z,15.00
2023-10-04T08:52:50.954Z,15.00
2023-10-04T08:55:06.588Z,15.00
2023-10-04T08:57:15.200Z,15.00
2023-10-04T08:59:19.730Z,15.00
2023-10-04T09:01:22.964Z,14.90
2023-10-04T09:03:26.211Z,14.90
2023-10-04T09:05:30.415Z,14.90
2023-10-04T09:07:35.035Z,14.90
2023-10-04T09:09:41.177Z,15.00
2023-10-04T09:11:46.545Z,15.10
2023-10-04T09:13:51.764Z,15.30
2023-10-04T09:15:54.676Z,15.40
2023-10-04T09:17:58.746Z,15.50
2023-10-04T09:20:13.290Z,15.70
2023-10-04T09:22:18.813Z,15.70
2023-10-04T09:24:23.155Z,15.70
2023-10-04T09:26:27.025Z,15.70
2023-10-04T09:28:40.066Z,15.90
2023-10-04T09:30:43.129Z,16.10
2023-10-04T09:32:45.991Z,16.10
2023-10-04T09:34:58.907Z,16.20
2023-10-04T09:37:01.934Z,16.40
2023-10-04T09:39:09.352Z,16.70
2023-10-04T09:41:15.014Z,16.70
2023-10-04T09:43:16.836Z,16.70
2023-10-04T09:45:22.531Z,16.50
2023-10-04T09:47:39.429Z,16.40
2023-10-04T09:49:52.520Z,16.40
2023-10-04T09:51:56.539Z,16.40
2023-10-04T09:53:59.558Z,16.40
2023-10-04T09:56:04.573Z,16.40
2023-10-04T09:58:14.713Z,16.50
2023-10-04T10:00:23.950Z,16.50
2023-10-04T10:02:34.803Z,16.50
2023-10-04T10:04:44.513Z,16.40
2023-10-04T10:06:57.912Z,16.40
2023-10-04T10:09:05.156Z,16.40
2023-10-04T10:11:10.776Z,16.40
2023-10-04T10:13:17.325Z,16.50
2023-10-04T10:15:20.952Z,16.50
2023-10-04T10:17:24.042Z,16.40
2023-10-04T10:19:27.988Z,16.20
2023-10-04T10:22:04.064Z,16.10
2023-10-04T10:24:16.618Z,16.20
2023-10-04T10:26:20.978Z,16.20
2023-10-04T10:28:26.217Z,16.30
2023-10-04T10:30:29.448Z,16.50
2023-10-04T10:32:32.246Z,16.80
2023-10-04T10:34:34.402Z,16.90
2023-10-04T10:36:38.789Z,16.90
2023-10-04T10:38:48.468Z,17.10
2023-10-04T10:40:51.957Z,17.10
2023-10-04T10:43:11.373Z,17.00
2023-10-04T10:45:29.510Z,16.90
2023-10-04T10:47:35.896Z,17.00
2023-10-04T10:49:45.493Z,17.10
2023-10-04T10:51:50.008Z,17.10
2023-10-04T10:53:53.474Z,17.00
2023-10-04T10:55:56.247Z,16.90
2023-10-04T10:57:59.827Z,16.70
2023-10-04T11:00:12.779Z,16.60
2023-10-04T11:02:16.102Z,16.50
2023-10-04T11:04:19.872Z,16.30
2023-10-04T11:06:22.741Z,16.20
2023-10-04T11:08:26.306Z,16.10
2023-10-04T11:10:29.256Z,16.20
2023-10-04T11:12:35.643Z,16.20
2023-10-04T11:14:37.549Z,16.40
2023-10-04T11:16:41.337Z,16.60
2023-10-04T11:18:48.773Z,16.70
2023-10-04T11:21:02.258Z,16.80
2023-10-04T11:23:07.048Z,16.90
2023-10-04T11:25:12.209Z,17.00
2023-10-04T11:27:22.047Z,17.10
2023-10-04T11:29:27.344Z,17.10
2023-10-04T11:31:42.698Z,17.10
2023-10-04T11:33:52.560Z,17.20
2023-10-04T11:35:55.448Z,17.30
2023-10-04T11:37:59.149Z,17.40
2023-10-04T11:40:02.186Z,17.40
2023-10-04T11:42:06.351Z,17.30
2023-10-04T11:44:09.049Z,17.30
2023-10-04T11:46:12.060Z,17.20
2023-10-04T11:48:14.895Z,17.20
2023-10-04T11:50:19.123Z,17.10
2023-10-04T11:52:22.700Z,17.20
2023-10-04T11:54:27.586Z,17.30
2023-10-04T11:56:32.004Z,17.40
2023-10-04T11:58:34.912Z,17.50
2023-10-04T12:00:37.733Z,17.60
2023-10-04T12:02:40.523Z,17.60
2023-10-04T12:04:43.582Z,17.70
2023-10-04T12:06:58.702Z,17.80
2023-10-04T12:09:05.742Z,17.90
2023-10-04T12:11:14.703Z,17.90
2023-10-04T12:13:18.957Z,18.00
2023-10-04T12:15:22.713Z,17.90
2023-10-04T12:17:26.103Z,17.80
2023-10-04T12:19:29.304Z,17.80
2023-10-04T12:21:32.532Z,17.90
2023-10-04T12:23:37.010Z,18.10
2023-10-04T12:25:43.359Z,18.20
2023-10-04T12:27:48.661Z,18.30
2023-10-04T12:29:51.463Z,18.30
2023-10-04T12:31:54.504Z,18.40
2023-10-04T12:33:57.774Z,18.30
2023-10-04T12:35:59.705Z,18.40
2023-10-04T12:38:04.977Z,18.20
2023-10-04T12:40:18.489Z,18.10
2023-10-04T12:42:21.281Z,18.20
2023-10-04T12:44:25.277Z,18.10
2023-10-04T12:46:28.546Z,18.10
2023-10-04T12:48:31.935Z,18.10
2023-10-04T12:50:37.920Z,18.20
2023-10-04T12:52:41.580Z,18.10
2023-10-04T12:54:44.420Z,18.10
2023-10-04T12:56:52.762Z,18.10
2023-10-04T12:58:57.622Z,18.10
2023-10-04T13:01:05.861Z,18.10
2023-10-04T13:03:09.696Z,18.00
2023-10-04T13:05:15.091Z,18.00
2023-10-04T13:07:18.913Z,17.90
2023-10-04T13:09:27.106Z,17.70
2023-10-04T13:11:33.609Z,17.80
2023-10-04T13:13:37.794Z,17.80
2023-10-04T13:15:40.719Z,17.80
2023-10-04T13:17:44.142Z,18.00
2023-10-04T13:19:47.334Z,18.10
2023-10-04T13:21:50.140Z,18.10
2023-10-04T13:23:53.039Z,18.20
2023-10-04T13:25:56.142Z,18.10
2023-10-04T13:27:57.999Z,18.00
2023-10-04T13:30:02.184Z,18.10
2023-10-04T13:32:06.189Z,18.10
2023-10-04T13:34:09.835Z,18.00
2023-10-04T13:36:12.639Z,18.00
2023-10-04T13:38:18.260Z,18.10
2023-10-04T13:40:21.013Z,18.10
2023-10-04T13:42:29.065Z,18.20
2023-10-04T13:44:33.264Z,18.30
2023-10-04T13:46:38.049Z,18.30
2023-10-04T13:48:45.090Z,18.20
2023-10-04T13:50:50.141Z,18.30
2023-10-04T13:52:53.003Z,18.30
2023-10-04T13:54:57.499Z,18.40
2023-10-04T13:57:01.824Z,18.50
2023-10-04T13:59:05.544Z,18.40
2023-10-04T14:01:09.431Z,18.30
2023-10-04T14:03:14.297Z,18.30
2023-10-04T14:05:19.982Z,18.30
2023-10-04T14:07:22.894Z,18.20
2023-10-04T14:09:26.306Z,18.20
2023-10-04T14:11:29.213Z,18.20
2023-10-04T14:13:33.016Z,18.20
2023-10-04T14:15:36.029Z,18.20
2023-10-04T14:17:37.864Z,18.10
2023-10-04T14:19:43.534Z,18.10
2023-10-04T14:21:46.807Z,18.10
2023-10-04T14:23:49.608Z,18.10
2023-10-04T14:25:55.903Z,18.00
2023-10-04T14:27:58.667Z,17.90
2023-10-04T14:30:02.868Z,17.90
2023-10-04T14:32:06.607Z,17.90
2023-10-04T14:34:09.559Z,17.90
2023-10-04T14:36:13.807Z,17.90
2023-10-04T14:38:16.833Z,17.90
2023-10-04T14:40:23.449Z,17.80
2023-10-04T14:42:26.448Z,17.80
2023-10-04T14:44:29.249Z,17.80
2023-10-04T14:46:33.514Z,17.90
2023-10-04T14:48:36.508Z,17.90
2023-10-04T14:50:40.458Z,18.00
2023-10-04T14:52:45.386Z,18.00
2023-10-04T14:54:48.167Z,18.00
2023-10-04T14:56:50.974Z,18.10
2023-10-04T14:58:53.940Z,18.10
2023-10-04T15:00:56.883Z,18.00
2023-10-04T15:03:00.865Z,18.00
2023-10-04T15:05:10.572Z,18.00
2023-10-04T15:07:14.266Z,18.00
2023-10-04T15:09:19.294Z,18.00
2023-10-04T15:11:30.260Z,17.90
2023-10-04T15:13:33.187Z,17.90
2023-10-04T15:15:36.258Z,17.90
2023-10-04T15:17:40.018Z,17.80
2023-10-04T15:19:44.691Z,17.80
2023-10-04T15:21:48.478Z,17.80
2023-10-04T15:23:51.242Z,17.80
2023-10-04T15:25:55.706Z,17.70
2023-10-04T15:27:58.469Z,17.60
2023-10-04T15:30:01.244Z,17.60
2023-10-04T15:32:06.092Z,17.50
2023-10-04T15:34:09.027Z,17.40
2023-10-04T15:36:15.654Z,17.30
2023-10-04T15:38:18.414Z,17.30
2023-10-04T15:40:23.973Z,17.30
2023-10-04T15:42:28.209Z,17.20
2023-10-04T15:44:31.171Z,17.20
2023-10-04T15:46:35.126Z,17.20
2023-10-04T15:48:38.111Z,17.10
2023-10-04T15:50:40.874Z,17.00
2023-10-04T15:52:43.779Z,17.00
2023-10-04T15:54:47.514Z,16.90
2023-10-04T15:56:52.460Z,16.90
2023-10-04T15:58:57.836Z,16.80
2023-10-04T16:01:01.957Z,16.70
2023-10-04T16:03:05.054Z,16.60
2023-10-04T16:05:09.755Z,16.50
2023-10-04T16:07:12.956Z,16.40
2023-10-04T16:09:15.766Z,16.30
2023-10-04T16:11:18.931Z,16.20
2023-10-04T16:13:21.785Z,16.10
2023-10-04T16:15:26.926Z,16.00
2023-10-04T16:17:30.017Z,15.90
2023-10-04T16:19:33.638Z,15.80
2023-10-04T16:21:37.249Z,15.70
2023-10-04T16:23:40.078Z,15.60
2023-10-04T16:25:43.385Z,15.50
2023-10-04T16:27:47.195Z,15.40
2023-10-04T16:29:49.928Z,15.30
2023-10-04T16:31:54.149Z,15.30
2023-10-04T16:33:56.950Z,15.20
2023-10-04T16:35:59.781Z,15.10
2023-10-04T16:38:02.960Z,15.00
2023-10-04T16:40:07.444Z,14.90
2023-10-04T16:42:10.425Z,14.80
2023-10-04T16:44:13.892Z,14.80
2023-10-04T16:46:16.680Z,14.60
2023-10-04T16:48:19.900Z,14.60
2023-10-04T16:50:23.206Z,14.50
2023-10-04T16:52:26.014Z,14.40
2023-10-04T16:54:29.626Z,14.30
2023-10-04T16:56:32.464Z,14.30
2023-10-04T16:58:35.212Z,14.30
2023-10-04T17:00:38.010Z,14.20
2023-10-04T17:02:40.044Z,14.20
2023-10-04T17:04:44.301Z,14.20
2023-10-04T17:06:47.130Z,14.20
2023-10-04T17:08:49.915Z,14.20
2023-10-04T17:10:52.886Z,14.20
2023-10-04T17:12:55.836Z,14.20
2023-10-04T17:14:58.635Z,14.20
2023-10-04T17:17:01.519Z,14.20
2023-10-04T17:19:04.624Z,14.20
2023-10-04T17:21:08.741Z,14.20
2023-10-04T17:23:15.820Z,14.20
2023-10-04T17:25:18.596Z,14.20
2023-10-04T17:27:21.480Z,14.20
2023-10-04T17:29:24.200Z,14.30
2023-10-04T17:31:27.214Z,14.30
2023-10-04T17:33:29.982Z,14.30
2023-10-04T17:35:33.606Z,14.40
2023-10-04T17:37:37.687Z,14.40
2023-10-04T17:39:40.812Z,14.40
2023-10-04T17:41:43.573Z,14.40
2023-10-04T17:43:47.473Z,14.40
2023-10-04T17:45:52.504Z,14.50
2023-10-04T17:47:55.868Z,14.50
2023-10-04T17:49:58.707Z,14.50
2023-10-04T17:52:01.683Z,14.50
2023-10-04T17:54:06.379Z,14.40
2023-10-04T17:56:11.216Z,14.40
2023-10-04T17:58:14.022Z,14.40
2023-10-04T18:00:16.325Z,14.40
2023-10-04T18:02:19.064Z,14.30
2023-10-04T18:04:22.495Z,14.30
2023-10-04T18:06:27.641Z,14.20
2023-10-04T18:08:30.381Z,14.20
2023-10-04T18:10:34.640Z,14.10
2023-10-04T18:12:38.115Z,14.00
2023-10-04T18:14:42.846Z,14.00
2023-10-04T18:16:46.681Z,13.90
2023-10-04T18:18:49.579Z,13.90
2023-10-04T18:20:52.482Z,13.80
2023-10-04T18:22:55.368Z,13.80
2023-10-04T18:24:58.283Z,13.70
2023-10-04T18:27:02.509Z,13.60
2023-10-04T18:29:05.996Z,13.60
2023-10-04T18:31:10.949Z,13.50
2023-10-04T18:33:13.996Z,13.50
2023-10-04T18:35:17.993Z,13.40
2023-10-04T18:37:20.099Z,13.40
2023-10-04T18:39:29.195Z,13.40
2023-10-04T18:41:32.127Z,13.40
2023-10-04T18:43:36.256Z,13.40
2023-10-04T18:45:39.704Z,13.30
2023-10-04T18:47:42.641Z,13.30
2023-10-04T18:49:45.993Z,13.30
2023-10-04T18:51:49.685Z,13.20
2023-10-04T18:53:52.816Z,13.20
2023-10-04T18:55:55.597Z,13.10
2023-10-04T18:57:58.354Z,13.10
2023-10-04T19:00:02.981Z,13.10
2023-10-04T19:02:06.155Z,13.10
2023-10-04T19:04:08.631Z,13.10
2023-10-04T19:06:12.223Z,13.10
2023-10-04T19:08:14.991Z,13.00
2023-10-04T19:10:20.708Z,13.00
2023-10-04T19:12:23.444Z,13.00
2023-10-04T19:14:26.254Z,12.90
2023-10-04T19:16:30.625Z,12.80
2023-10-04T19:18:35.584Z,12.80
2023-10-04T19:20:38.455Z,12.80
2023-10-04T19:22:42.885Z,12.80
2023-10-04T19:24:47.573Z,12.80
2023-10-04T19:26:50.939Z,12.80
2023-10-04T19:28:54.887Z,12.90
2023-10-04T19:31:00.574Z,13.00
2023-10-04T19:33:05.697Z,13.00
2023-10-04T19:35:08.700Z,13.10
2023-10-04T19:37:11.535Z,13.10
2023-10-04T19:39:16.874Z,13.10
2023-10-04T19:41:19.977Z,13.20
2023-10-04T19:43:22.841Z,13.20
2023-10-04T19:45:25.596Z,13.20
2023-10-04T19:47:28.571Z,13.20
2023-10-04T19:49:33.322Z,13.20
2023-10-04T19:51:38.125Z,13.10
2023-10-04T19:53:42.880Z,13.10
2023-10-04T19:55:46.980Z,13.10
2023-10-04T19:57:50.597Z,13.10
2023-10-04T19:59:54.834Z,13.10
2023-10-04T20:01:57.670Z,13.10
2023-10-04T20:04:02.923Z,13.00
2023-10-04T20:06:11.297Z,13.00
2023-10-04T20:08:15.759Z,13.00
2023-10-04T20:10:19.038Z,13.00
2023-10-04T20:12:21.791Z,13.00
2023-10-04T20:14:29.434Z,13.00
2023-10-04T20:16:32.294Z,13.00
2023-10-04T20:18:35.387Z,12.90
2023-10-04T20:20:39.052Z,12.90
2023-10-04T20:22:43.638Z,12.80
2023-10-04T20:24:46.447Z,12.80
2023-10-04T20:26:49.515Z,12.80
2023-10-04T20:28:52.349Z,12.80
2023-10-04T20:30:55.258Z,12.80
2023-10-04T20:32:58.237Z,12.80
2023-10-04T20:35:01.053Z,12.80
2023-10-04T20:37:02.940Z,12.90
2023-10-04T20:39:07.301Z,12.90
2023-10-04T20:41:10.125Z,12.90
2023-10-04T20:43:13.056Z,12.90
2023-10-04T20:45:16.558Z,12.90
2023-10-04T20:47:19.807Z,13.00
2023-10-04T20:49:23.357Z,13.00
2023-10-04T20:51:30.217Z,13.00
2023-10-04T20:53:33.392Z,13.00
2023-10-04T20:55:38.681Z,13.10
2023-10-04T20:57:41.688Z,13.10
2023-10-04T20:59:44.537Z,13.10
2023-10-04T21:01:48.885Z,13.10
2023-10-04T21:03:52.615Z,13.00
2023-10-04T21:05:55.858Z,13.00
2023-10-04T21:07:58.823Z,13.00
2023-10-04T21:10:00.721Z,13.00
2023-10-04T21:12:05.341Z,12.90
2023-10-04T21:14:08.445Z,12.80
2023-10-04T21:16:11.469Z,12.60
2023-10-04T21:18:14.345Z,12.40
2023-10-04T21:20:20.172Z,12.40
2023-10-04T21:22:24.595Z,12.30
2023-10-04T21:24:27.578Z,12.20
2023-10-04T21:26:30.700Z,12.20
2023-10-04T21:28:35.250Z,12.20
2023-10-04T21:30:42.991Z,12.20
2023-10-04T21:32:56.072Z,12.20
2023-10-04T21:34:59.348Z,12.20
2023-10-04T21:37:09.273Z,12.30
2023-10-04T21:39:13.502Z,12.20
2023-10-04T21:41:17.151Z,12.20
2023-10-04T21:43:20.036Z,12.20
2023-10-04T21:45:27.191Z,12.20
2023-10-04T21:47:38.393Z,12.10
2023-10-04T21:49:43.940Z,12.10
2023-10-04T21:51:49.041Z,12.00
2023-10-04T21:53:53.026Z,11.90
2023-10-04T21:55:55.913Z,11.80
2023-10-04T21:57:59.715Z,11.70
2023-10-04T22:00:02.236Z,11.60
2023-10-04T22:02:06.594Z,11.60
2023-10-04T22:04:11.110Z,11.50
2023-10-04T22:06:18.082Z,11.50
2023-10-04T22:08:20.995Z,11.50
2023-10-04T22:10:23.734Z,11.50
2023-10-04T22:12:26.453Z,11.50
2023-10-04T22:14:29.240Z,11.40
2023-10-04T22:16:32.053Z,11.40
2023-10-04T22:18:36.277Z,11.30
2023-10-04T22:20:39.385Z,11.30
2023-10-04T22:22:41.589Z,11.30
2023-10-04T22:25:01.047Z,11.20
2023-10-04T22:27:04.490Z,11.20
2023-10-04T22:29:20.969Z,11.20
2023-10-04T22:31:32.879Z,11.10
2023-10-04T22:33:37.100Z,11.10
2023-10-04T22:35:39.869Z,11.00
2023-10-04T22:37:44.175Z,11.00
2023-10-04T22:39:47.048Z,11.00
2023-10-04T22:41:49.825Z,11.10
2023-10-04T22:43:52.885Z,11.20
2023-10-04T22:45:58.377Z,11.20
2023-10-04T22:48:00.363Z,11.30
2023-10-04T22:50:06.304Z,11.40
2023-10-04T22:52:12.140Z,11.50
2023-10-04T22:54:15.061Z,11.50
2023-10-04T22:56:19.941Z,11.50
2023-10-04T22:58:23.594Z,11.60
2023-10-04T23:00:26.941Z,11.60
2023-10-04T23:02:29.836Z,11.50
2023-10-04T23:04:32.832Z,11.50
2023-10-04T23:06:37.590Z,11.40
2023-10-04T23:08:41.365Z,11.20
2023-10-04T23:10:46.276Z,11.10
2023-10-04T23:12:49.981Z,11.00
2023-10-04T23:14:53.454Z,10.90
2023-10-04T23:16:58.808Z,10.70
2023-10-04T23:19:12.013Z,10.60
2023-10-04T23:21:24.774Z,10.50
2023-10-04T23:23:32.445Z,10.50
2023-10-04T23:25:37.196Z,10.40
2023-10-04T23:27:40.394Z,10.40
2023-10-04T23:29:44.651Z,10.30
2023-10-04T23:31:50.042Z,10.30
2023-10-04T23:33:54.643Z,10.30
2023-10-04T23:35:59.329Z,10.20
2023-10-04T23:38:14.528Z,10.20
2023-10-04T23:40:21.606Z,10.20
2023-10-04T23:42:24.356Z,10.20
2023-10-04T23:44:27.125Z,10.10
2023-10-04T23:46:31.721Z,10.10
2023-10-04T23:48:35.283Z,10.00
2023-10-04T23:50:39.839Z,10.00
2023-10-04T23:52:42.630Z,10.00
2023-10-04T23:54:46.069Z,9.90
2023-10-04T23:57:01.773Z,9.90
2023-10-04T23:59:04.605Z,9.90
